sensor_id;sensor_type;location;lat;lon;timestamp;pressure;altitude;pressure_sealevel;temperature;humidity
82931;BME280;72705;53.346;10.248;2024-03-02T00:00:50;100460.63;;;7.70;100.00
82931;BME280;72705;53.346;10.248;2024-03-02T00:03:16;100451.16;;;7.66;100.00
82931;BME280;72705;53.346;10.248;2024-03-02T00:05:41;100445.88;;;7.57;100.00
82931;BME280;72705;53.346;10.248;2024-03-02T00:08:07;100466.28;;;7.67;100.00
82931;BME280;72705;53.346;10.248;2024-03-02T00:10:37;100469.09;;;7.66;100.00
82931;BME280;72705;53.346;10.248;2024-03-02T00:13:06;100472.81;;;7.65;100.00
82931;BME280;72705;53.346;10.248;2024-03-02T00:15:54;100459.59;;;7.54;100.00
82931;BME280;72705;53.346;10.248;2024-03-02T00:18:25;100459.59;;;7.54;100.00
82931;BME280;72705;53.346;10.248;2024-03-02T00:20:54;100457.22;;;7.51;100.00
82931;BME280;72705;53.346;10.248;2024-03-02T00:23:27;100446.03;;;7.55;100.00
82931;BME280;72705;53.346;10.248;2024-03-02T00:25:55;100458.69;;;7.63;100.00
82931;BME280;72705;53.346;10.248;2024-03-02T00:28:27;100449.25;;;7.59;100.00
82931;BME280;72705;53.346;10.248;2024-03-02T00:33:23;100433.59;;;7.54;100.00
82931;BME280;72705;53.346;10.248;2024-03-02T00:35:50;100443.81;;;7.51;100.00
82931;BME280;72705;53.346;10.248;2024-03-02T00:38:16;100431.88;;;7.36;100.00
82931;BME280;72705;53.346;10.248;2024-03-02T00:40:43;100444.53;;;7.43;100.00
82931;BME280;72705;53.346;10.248;2024-03-02T00:43:27;100440.91;;;7.35;100.00
82931;BME280;72705;53.346;10.248;2024-03-02T00:46:01;100420.06;;;7.28;100.00
82931;BME280;72705;53.346;10.248;2024-03-02T00:48:26;100442.91;;;7.32;100.00
82931;BME280;72705;53.346;10.248;2024-03-02T00:50:52;100440.22;;;7.32;100.00
82931;BME280;72705;53.346;10.248;2024-03-02T00:53:22;100443.59;;;7.35;100.00
82931;BME280;72705;53.346;10.248;2024-03-02T00:55:49;100443.91;;;7.31;100.00
82931;BME280;72705;53.346;10.248;2024-03-02T00:58:15;100446.88;;;7.28;100.00
82931;BME280;72705;53.346;10.248;2024-03-02T01:00:40;100413.50;;;7.13;100.00
82931;BME280;72705;53.346;10.248;2024-03-02T01:03:06;100432.09;;;7.24;100.00
82931;BME280;72705;53.346;10.248;2024-03-02T01:05:34;100429.78;;;7.29;100.00
82931;BME280;72705;53.346;10.248;2024-03-02T01:08:02;100419.41;;;7.17;100.00
82931;BME280;72705;53.346;10.248;2024-03-02T01:10:29;100424.34;;;7.21;100.00
82931;BME280;72705;53.346;10.248;2024-03-02T01:12:54;100419.97;;;7.20;100.00
82931;BME280;72705;53.346;10.248;2024-03-02T01:15:19;100405.47;;;7.13;100.00
82931;BME280;72705;53.346;10.248;2024-03-02T01:17:46;100425.03;;;7.23;100.00
82931;BME280;72705;53.346;10.248;2024-03-02T01:20:11;100428.69;;;7.22;100.00
82931;BME280;72705;53.346;10.248;2024-03-02T01:22:37;100399.97;;;7.15;100.00
82931;BME280;72705;53.346;10.248;2024-03-02T01:25:02;100411.22;;;7.18;100.00
82931;BME280;72705;53.346;10.248;2024-03-02T01:27:28;100413.50;;;7.13;100.00
82931;BME280;72705;53.346;10.248;2024-03-02T01:29:53;100409.84;;;7.14;100.00
82931;BME280;72705;53.346;10.248;2024-03-02T01:32:19;100417.19;;;7.12;100.00
82931;BME280;72705;53.346;10.248;2024-03-02T01:34:45;100419.06;;;7.02;100.00
82931;BME280;72705;53.346;10.248;2024-03-02T01:37:10;100419.94;;;7.03;100.00
82931;BME280;72705;53.346;10.248;2024-03-02T01:39:35;100398.09;;;6.88;100.00
82931;BME280;72705;53.346;10.248;2024-03-02T01:42:01;100398.66;;;6.91;100.00
82931;BME280;72705;53.346;10.248;2024-03-02T01:44:27;100421.16;;;7.08;100.00
82931;BME280;72705;53.346;10.248;2024-03-02T01:46:52;100423.59;;;7.02;100.00
82931;BME280;72705;53.346;10.248;2024-03-02T01:49:17;100409.69;;;6.88;100.00
82931;BME280;72705;53.346;10.248;2024-03-02T01:51:44;100406.59;;;6.83;100.00
82931;BME280;72705;53.346;10.248;2024-03-02T01:54:09;100437.88;;;6.93;100.00
82931;BME280;72705;53.346;10.248;2024-03-02T01:56:35;100411.38;;;6.80;100.00
82931;BME280;72705;53.346;10.248;2024-03-02T01:59:01;100434.66;;;6.89;100.00
82931;BME280;72705;53.346;10.248;2024-03-02T02:01:30;100420.28;;;6.80;100.00
82931;BME280;72705;53.346;10.248;2024-03-02T02:03:56;100431.97;;;6.89;100.00
82931;BME280;72705;53.346;10.248;2024-03-02T02:06:22;100409.47;;;6.72;100.00
82931;BME280;72705;53.346;10.248;2024-03-02T02:08:47;100417.59;;;6.80;100.00
82931;BME280;72705;53.346;10.248;2024-03-02T02:11:16;100435.94;;;6.85;100.00
82931;BME280;72705;53.346;10.248;2024-03-02T02:13:42;100429.72;;;6.84;100.00
82931;BME280;72705;53.346;10.248;2024-03-02T02:16:08;100418.75;;;6.78;100.00
82931;BME280;72705;53.346;10.248;2024-03-02T02:18:33;100424.38;;;6.84;100.00
82931;BME280;72705;53.346;10.248;2024-03-02T02:20:59;100423.34;;;6.85;100.00
82931;BME280;72705;53.346;10.248;2024-03-02T02:23:25;100419.84;;;6.85;100.00
82931;BME280;72705;53.346;10.248;2024-03-02T02:25:53;100397.91;;;6.72;100.00
82931;BME280;72705;53.346;10.248;2024-03-02T02:28:19;100423.22;;;6.87;100.00
82931;BME280;72705;53.346;10.248;2024-03-02T02:30:44;100401.81;;;6.77;100.00
82931;BME280;72705;53.346;10.248;2024-03-02T02:33:09;100368.31;;;6.64;100.00
82931;BME280;72705;53.346;10.248;2024-03-02T02:35:35;100401.78;;;6.87;100.00
82931;BME280;72705;53.346;10.248;2024-03-02T02:38:00;100391.66;;;6.81;100.00
82931;BME280;72705;53.346;10.248;2024-03-02T02:40:27;100393.59;;;6.88;100.00
82931;BME280;72705;53.346;10.248;2024-03-02T02:42:54;100382.91;;;6.79;100.00
82931;BME280;72705;53.346;10.248;2024-03-02T02:45:20;100374.47;;;6.74;100.00
82931;BME280;72705;53.346;10.248;2024-03-02T02:47:45;100407.84;;;6.89;100.00
82931;BME280;72705;53.346;10.248;2024-03-02T02:50:11;100395.03;;;6.83;100.00
82931;BME280;72705;53.346;10.248;2024-03-02T02:52:38;100403.19;;;6.91;100.00
82931;BME280;72705;53.346;10.248;2024-03-02T02:55:07;100401.78;;;6.87;100.00
82931;BME280;72705;53.346;10.248;2024-03-02T02:57:33;100373.63;;;6.73;100.00
82931;BME280;72705;53.346;10.248;2024-03-02T03:00:12;100393.44;;;6.90;100.00
82931;BME280;72705;53.346;10.248;2024-03-02T03:02:43;100367.84;;;6.68;100.00
82931;BME280;72705;53.346;10.248;2024-03-02T03:05:10;100396.72;;;6.84;100.00
82931;BME280;72705;53.346;10.248;2024-03-02T03:07:36;100401.25;;;6.83;100.00
82931;BME280;72705;53.346;10.248;2024-03-02T03:10:02;100371.94;;;6.72;100.00
82931;BME280;72705;53.346;10.248;2024-03-02T03:12:29;100388.38;;;6.87;100.00
82931;BME280;72705;53.346;10.248;2024-03-02T03:14:54;100374.03;;;6.78;100.00
82931;BME280;72705;53.346;10.248;2024-03-02T03:17:21;100381.81;;;6.72;100.00
82931;BME280;72705;53.346;10.248;2024-03-02T03:19:49;100391.09;;;6.77;100.00
82931;BME280;72705;53.346;10.248;2024-03-02T03:22:15;100385.75;;;6.77;100.00
82931;BME280;72705;53.346;10.248;2024-03-02T03:24:40;100399.53;;;6.82;100.00
82931;BME280;72705;53.346;10.248;2024-03-02T03:27:06;100366.50;;;6.55;100.00
82931;BME280;72705;53.346;10.248;2024-03-02T03:29:31;100379.56;;;6.67;100.00
82931;BME280;72705;53.346;10.248;2024-03-02T03:31:57;100389.81;;;6.81;100.00
82931;BME280;72705;53.346;10.248;2024-03-02T03:34:22;100338.47;;;6.49;100.00
82931;BME280;72705;53.346;10.248;2024-03-02T03:36:47;100397.84;;;6.81;100.00
82931;BME280;72705;53.346;10.248;2024-03-02T03:39:13;100401.38;;;6.82;100.00
82931;BME280;72705;53.346;10.248;2024-03-02T03:41:40;100378.31;;;6.71;100.00
82931;BME280;72705;53.346;10.248;2024-03-02T03:44:05;100393.06;;;6.85;100.00
82931;BME280;72705;53.346;10.248;2024-03-02T03:46:31;100377.84;;;6.76;100.00
82931;BME280;72705;53.346;10.248;2024-03-02T03:48:56;100380.94;;;6.81;100.00
82931;BME280;72705;53.346;10.248;2024-03-02T03:51:21;100376.47;;;6.72;100.00
82931;BME280;72705;53.346;10.248;2024-03-02T03:53:49;100392.81;;;6.78;100.00
82931;BME280;72705;53.346;10.248;2024-03-02T03:56:15;100390.53;;;6.74;100.00
82931;BME280;72705;53.346;10.248;2024-03-02T03:58:40;100387.47;;;6.69;100.00
82931;BME280;72705;53.346;10.248;2024-03-02T04:01:06;100383.00;;;6.60;100.00
82931;BME280;72705;53.346;10.248;2024-03-02T04:03:32;100372.41;;;6.58;100.00
82931;BME280;72705;53.346;10.248;2024-03-02T04:06:00;100386.66;;;6.59;100.00
82931;BME280;72705;53.346;10.248;2024-03-02T04:08:25;100371.56;;;6.58;100.00
82931;BME280;72705;53.346;10.248;2024-03-02T04:10:52;100380.47;;;6.58;100.00
82931;BME280;72705;53.346;10.248;2024-03-02T04:13:17;100378.22;;;6.54;100.00
82931;BME280;72705;53.346;10.248;2024-03-02T04:15:43;100374.84;;;6.52;100.00
82931;BME280;72705;53.346;10.248;2024-03-02T04:18:08;100363.72;;;6.46;100.00
82931;BME280;72705;53.346;10.248;2024-03-02T04:20:33;100369.75;;;6.48;100.00
82931;BME280;72705;53.346;10.248;2024-03-02T04:23:01;100376.22;;;6.56;100.00
82931;BME280;72705;53.346;10.248;2024-03-02T04:25:27;100373.16;;;6.50;100.00
82931;BME280;72705;53.346;10.248;2024-03-02T04:27:53;100334.19;;;6.29;100.00
82931;BME280;72705;53.346;10.248;2024-03-02T04:30:18;100370.78;;;6.47;100.00
82931;BME280;72705;53.346;10.248;2024-03-02T04:32:43;100373.59;;;6.46;100.00
82931;BME280;72705;53.346;10.248;2024-03-02T04:35:11;100357.44;;;6.28;100.00
82931;BME280;72705;53.346;10.248;2024-03-02T04:37:38;100371.94;;;6.35;100.00
82931;BME280;72705;53.346;10.248;2024-03-02T04:40:05;100366.31;;;6.29;100.00
82931;BME280;72705;53.346;10.248;2024-03-02T04:42:34;100365.84;;;6.43;100.00
82931;BME280;72705;53.346;10.248;2024-03-02T04:45:00;100371.34;;;6.41;100.00
82931;BME280;72705;53.346;10.248;2024-03-02T04:47:28;100391.19;;;6.48;100.00
82931;BME280;72705;53.346;10.248;2024-03-02T04:49:54;100379.66;;;6.38;100.00
82931;BME280;72705;53.346;10.248;2024-03-02T04:52:19;100392.75;;;6.51;100.00
82931;BME280;72705;53.346;10.248;2024-03-02T04:54:45;100388.81;;;6.45;100.00
82931;BME280;72705;53.346;10.248;2024-03-02T04:57:28;100396.03;;;6.35;100.00
82931;BME280;72705;53.346;10.248;2024-03-02T04:59:54;100399.25;;;6.39;100.00
82931;BME280;72705;53.346;10.248;2024-03-02T05:02:19;100401.09;;;6.38;100.00
82931;BME280;72705;53.346;10.248;2024-03-02T05:04:51;100385.91;;;6.29;100.00
82931;BME280;72705;53.346;10.248;2024-03-02T05:07:17;100382.25;;;6.21;100.00
82931;BME280;72705;53.346;10.248;2024-03-02T05:09:42;100399.28;;;6.29;100.00
82931;BME280;72705;53.346;10.248;2024-03-02T05:12:09;100406.75;;;6.35;100.00
82931;BME280;72705;53.346;10.248;2024-03-02T05:14:53;100390.16;;;6.22;100.00
82931;BME280;72705;53.346;10.248;2024-03-02T05:17:19;100388.44;;;6.21;100.00
82931;BME280;72705;53.346;10.248;2024-03-02T05:19:44;100408.72;;;6.33;100.00
82931;BME280;72705;53.346;10.248;2024-03-02T05:22:09;100318.34;;;5.79;100.00
82931;BME280;72705;53.346;10.248;2024-03-02T05:24:34;100360.56;;;6.14;100.00
82931;BME280;72705;53.346;10.248;2024-03-02T05:27:00;100392.34;;;6.36;100.00
82931;BME280;72705;53.346;10.248;2024-03-02T05:29:25;100392.78;;;6.41;100.00
82931;BME280;72705;53.346;10.248;2024-03-02T05:31:50;100368.00;;;6.20;100.00
82931;BME280;72705;53.346;10.248;2024-03-02T05:34:16;100389.25;;;6.41;100.00
82931;BME280;72705;53.346;10.248;2024-03-02T05:36:41;100329.59;;;6.02;100.00
82931;BME280;72705;53.346;10.248;2024-03-02T05:39:07;100381.22;;;6.31;100.00
82931;BME280;72705;53.346;10.248;2024-03-02T05:41:35;100369.25;;;6.26;100.00
82931;BME280;72705;53.346;10.248;2024-03-02T05:44:00;100392.50;;;6.35;100.00
82931;BME280;72705;53.346;10.248;2024-03-02T05:46:28;100385.19;;;6.27;100.00
82931;BME280;72705;53.346;10.248;2024-03-02T05:48:53;100405.63;;;6.28;100.00
82931;BME280;72705;53.346;10.248;2024-03-02T05:51:18;100405.91;;;6.25;100.00
82931;BME280;72705;53.346;10.248;2024-03-02T05:53:44;100408.59;;;6.25;100.00
82931;BME280;72705;53.346;10.248;2024-03-02T05:56:10;100398.19;;;6.22;100.00
82931;BME280;72705;53.346;10.248;2024-03-02T05:58:38;100399.44;;;6.28;100.00
82931;BME280;72705;53.346;10.248;2024-03-02T06:01:22;100379.13;;;6.25;100.00
82931;BME280;72705;53.346;10.248;2024-03-02T06:03:54;100401.09;;;6.38;100.00
82931;BME280;72705;53.346;10.248;2024-03-02T06:06:19;100382.22;;;6.30;100.00
82931;BME280;72705;53.346;10.248;2024-03-02T06:08:45;100392.34;;;6.36;100.00
82931;BME280;72705;53.346;10.248;2024-03-02T06:11:11;100379.13;;;6.25;100.00
82931;BME280;72705;53.346;10.248;2024-03-02T06:13:36;100363.78;;;6.18;100.00
82931;BME280;72705;53.346;10.248;2024-03-02T06:16:01;100343.94;;;6.11;100.00
82931;BME280;72705;53.346;10.248;2024-03-02T06:18:27;100353.91;;;6.18;100.00
82931;BME280;72705;53.346;10.248;2024-03-02T06:20:53;100387.00;;;6.36;100.00
82931;BME280;72705;53.346;10.248;2024-03-02T06:23:18;100356.59;;;6.18;100.00
82931;BME280;72705;53.346;10.248;2024-03-02T06:25:44;100361.41;;;6.15;100.00
82931;BME280;72705;53.346;10.248;2024-03-02T06:28:09;100401.09;;;6.38;100.00
82931;BME280;72705;53.346;10.248;2024-03-02T06:30:34;100409.25;;;6.46;100.00
82931;BME280;72705;53.346;10.248;2024-03-02T06:33:00;100416.00;;;6.50;100.00
82931;BME280;72705;53.346;10.248;2024-03-02T06:35:25;100399.41;;;6.47;100.00
82931;BME280;72705;53.346;10.248;2024-03-02T06:37:51;100406.28;;;6.49;100.00
82931;BME280;72705;53.346;10.248;2024-03-02T06:40:16;100404.56;;;6.48;100.00
82931;BME280;72705;53.346;10.248;2024-03-02T06:42:42;100406.13;;;6.51;100.00
82931;BME280;72705;53.346;10.248;2024-03-02T06:45:07;100386.13;;;6.36;100.00
82931;BME280;72705;53.346;10.248;2024-03-02T06:47:33;100409.25;;;6.46;100.00
82931;BME280;72705;53.346;10.248;2024-03-02T06:49:58;100415.03;;;6.52;100.00
82931;BME280;72705;53.346;10.248;2024-03-02T06:52:24;100413.19;;;6.52;100.00
82931;BME280;72705;53.346;10.248;2024-03-02T06:54:51;100387.84;;;6.46;100.00
82931;BME280;72705;53.346;10.248;2024-03-02T06:57:16;100423.31;;;6.58;100.00
82931;BME280;72705;53.346;10.248;2024-03-02T06:59:42;100392.19;;;6.47;100.00
82931;BME280;72705;53.346;10.248;2024-03-02T07:02:07;100367.56;;;6.34;100.00
82931;BME280;72705;53.346;10.248;2024-03-02T07:04:34;100420.47;;;6.69;100.00
82931;BME280;72705;53.346;10.248;2024-03-02T07:06:59;100416.81;;;6.70;100.00
82931;BME280;72705;53.346;10.248;2024-03-02T07:09:24;100403.25;;;6.72;100.00
82931;BME280;72705;53.346;10.248;2024-03-02T07:11:51;100415.38;;;6.76;100.00
82931;BME280;72705;53.346;10.248;2024-03-02T07:14:16;100400.16;;;6.67;100.00
82931;BME280;72705;53.346;10.248;2024-03-02T07:16:41;100388.75;;;6.65;100.00
82931;BME280;72705;53.346;10.248;2024-03-02T07:19:08;100408.44;;;6.83;100.00
82931;BME280;72705;53.346;10.248;2024-03-02T07:21:34;100397.91;;;6.72;100.00
82931;BME280;72705;53.346;10.248;2024-03-02T07:23:59;100400.16;;;6.67;100.00
82931;BME280;72705;53.346;10.248;2024-03-02T07:26:28;100419.84;;;6.85;100.00
82931;BME280;72705;53.346;10.248;2024-03-02T07:28:53;100429.44;;;6.87;100.00
82931;BME280;72705;53.346;10.248;2024-03-02T07:31:19;100429.28;;;6.89;100.00
82931;BME280;72705;53.346;10.248;2024-03-02T07:33:45;100430.97;;;6.90;100.00
82931;BME280;72705;53.346;10.248;2024-03-02T07:36:12;100412.88;;;6.65;100.00
82931;BME280;72705;53.346;10.248;2024-03-02T07:38:38;100421.53;;;6.86;100.00
82931;BME280;72705;53.346;10.248;2024-03-02T07:41:05;100410.00;;;6.76;100.00
82931;BME280;72705;53.346;10.248;2024-03-02T07:43:30;100451.66;;;7.07;100.00
82931;BME280;72705;53.346;10.248;2024-03-02T07:46:01;100450.81;;;7.07;100.00
82931;BME280;72705;53.346;10.248;2024-03-02T07:48:28;100453.41;;;7.16;100.00
82931;BME280;72705;53.346;10.248;2024-03-02T07:50:54;100437.94;;;7.10;100.00
82931;BME280;72705;53.346;10.248;2024-03-02T07:53:19;100449.97;;;7.34;100.00
82931;BME280;72705;53.346;10.248;2024-03-02T07:55:45;100434.06;;;7.22;100.00
82931;BME280;72705;53.346;10.248;2024-03-02T07:58:10;100440.31;;;7.41;100.00
82931;BME280;72705;53.346;10.248;2024-03-02T08:00:39;100455.53;;;7.50;100.00
82931;BME280;72705;53.346;10.248;2024-03-02T08:03:04;100462.09;;;7.65;100.00
82931;BME280;72705;53.346;10.248;2024-03-02T08:05:30;100442.88;;;7.60;100.00
82931;BME280;72705;53.346;10.248;2024-03-02T08:07:56;100439.59;;;7.66;100.00
82931;BME280;72705;53.346;10.248;2024-03-02T08:10:22;100467.28;;;7.84;100.00
82931;BME280;72705;53.346;10.248;2024-03-02T08:12:47;100467.16;;;7.86;100.00
82931;BME280;72705;53.346;10.248;2024-03-02T08:15:12;100487.25;;;7.99;100.00
82931;BME280;72705;53.346;10.248;2024-03-02T08:17:39;100485.28;;;8.01;100.00
82931;BME280;72705;53.346;10.248;2024-03-02T08:20:11;100467.47;;;8.00;100.00
82931;BME280;72705;53.346;10.248;2024-03-02T08:22:38;100472.59;;;8.11;100.00
82931;BME280;72705;53.346;10.248;2024-03-02T08:25:04;100482.59;;;8.19;100.00
82931;BME280;72705;53.346;10.248;2024-03-02T08:27:31;100470.38;;;8.25;100.00
82931;BME280;72705;53.346;10.248;2024-03-02T08:29:57;100491.38;;;8.39;100.00
82931;BME280;72705;53.346;10.248;2024-03-02T08:32:22;100433.69;;;8.16;100.00
82931;BME280;72705;53.346;10.248;2024-03-02T08:34:48;100471.69;;;8.56;100.00
82931;BME280;72705;53.346;10.248;2024-03-02T08:37:13;100488.28;;;8.77;99.17
82931;BME280;72705;53.346;10.248;2024-03-02T08:39:38;100471.09;;;8.70;99.45
82931;BME280;72705;53.346;10.248;2024-03-02T08:42:05;100497.47;;;8.92;97.14
82931;BME280;72705;53.346;10.248;2024-03-02T08:44:31;100471.53;;;8.83;97.51
82931;BME280;72705;53.346;10.248;2024-03-02T08:46:56;100434.19;;;8.55;96.39
82931;BME280;72705;53.346;10.248;2024-03-02T08:49:23;100502.53;;;8.96;96.59
82931;BME280;72705;53.346;10.248;2024-03-02T08:51:48;100448.00;;;8.85;96.48
82931;BME280;72705;53.346;10.248;2024-03-02T08:54:22;100426.78;;;8.74;95.29
82931;BME280;72705;53.346;10.248;2024-03-02T08:56:48;100493.59;;;9.21;94.71
82931;BME280;72705;53.346;10.248;2024-03-02T08:59:16;100451.84;;;9.09;94.68
82931;BME280;72705;53.346;10.248;2024-03-02T09:01:42;100480.34;;;9.27;94.20
82931;BME280;72705;53.346;10.248;2024-03-02T09:04:07;100488.66;;;9.42;93.27
82931;BME280;72705;53.346;10.248;2024-03-02T09:06:35;100489.31;;;9.36;93.14
82931;BME280;72705;53.346;10.248;2024-03-02T09:09:01;100501.44;;;9.40;93.39
82931;BME280;72705;53.346;10.248;2024-03-02T09:11:26;100498.59;;;9.42;92.54
82931;BME280;72705;53.346;10.248;2024-03-02T09:13:53;100444.31;;;9.20;92.35
82931;BME280;72705;53.346;10.248;2024-03-02T09:16:21;100484.38;;;9.65;90.81
82931;BME280;72705;53.346;10.248;2024-03-02T09:18:46;100479.19;;;9.72;90.49
82931;BME280;72705;53.346;10.248;2024-03-02T09:21:12;100476.72;;;9.87;89.77
82931;BME280;72705;53.346;10.248;2024-03-02T09:23:37;100444.34;;;9.62;89.21
82931;BME280;72705;53.346;10.248;2024-03-02T09:26:04;100489.53;;;10.09;87.99
82931;BME280;72705;53.346;10.248;2024-03-02T09:28:31;100469.22;;;10.23;86.47
82931;BME280;72705;53.346;10.248;2024-03-02T09:30:57;100480.00;;;10.47;86.37
82931;BME280;72705;53.346;10.248;2024-03-02T09:33:23;100492.31;;;10.74;85.40
82931;BME280;72705;53.346;10.248;2024-03-02T09:35:48;100491.09;;;10.76;84.71
82931;BME280;72705;53.346;10.248;2024-03-02T09:38:14;100461.94;;;10.55;82.96
82931;BME280;72705;53.346;10.248;2024-03-02T09:40:41;100464.16;;;10.52;82.73
82931;BME280;72705;53.346;10.248;2024-03-02T09:43:11;100477.63;;;10.68;82.15
82931;BME280;72705;53.346;10.248;2024-03-02T09:45:37;100466.34;;;10.65;81.91
82931;BME280;72705;53.346;10.248;2024-03-02T09:48:03;100495.28;;;10.95;82.31
82931;BME280;72705;53.346;10.248;2024-03-02T09:50:28;100499.69;;;11.04;80.86
82931;BME280;72705;53.346;10.248;2024-03-02T09:52:55;100455.50;;;10.97;81.38
82931;BME280;72705;53.346;10.248;2024-03-02T09:55:21;100499.97;;;11.17;79.94
82931;BME280;72705;53.346;10.248;2024-03-02T09:57:48;100481.19;;;11.32;79.95
82931;BME280;72705;53.346;10.248;2024-03-02T10:00:15;100486.72;;;11.47;78.33
82931;BME280;72705;53.346;10.248;2024-03-02T10:02:41;100486.88;;;11.53;77.44
82931;BME280;72705;53.346;10.248;2024-03-02T10:05:08;100487.63;;;11.70;77.28
82931;BME280;72705;53.346;10.248;2024-03-02T10:07:36;100489.28;;;11.79;74.80
82931;BME280;72705;53.346;10.248;2024-03-02T10:10:15;100493.88;;;11.79;74.03
82931;BME280;72705;53.346;10.248;2024-03-02T10:12:42;100486.47;;;11.64;74.23
82931;BME280;72705;53.346;10.248;2024-03-02T10:15:09;100489.97;;;11.73;73.79
82931;BME280;72705;53.346;10.248;2024-03-02T10:17:35;100494.03;;;11.69;72.34
82931;BME280;72705;53.346;10.248;2024-03-02T10:20:23;100460.63;;;11.62;73.12
82931;BME280;72705;53.346;10.248;2024-03-02T10:22:49;100502.75;;;11.87;73.06
82931;BME280;72705;53.346;10.248;2024-03-02T10:25:32;100497.84;;;11.91;72.52
82931;BME280;72705;53.346;10.248;2024-03-02T10:28:00;100482.22;;;11.78;72.16
82931;BME280;72705;53.346;10.248;2024-03-02T10:30:29;100496.69;;;11.85;71.65
82931;BME280;72705;53.346;10.248;2024-03-02T10:32:55;100492.38;;;11.99;71.60
82931;BME280;72705;53.346;10.248;2024-03-02T10:35:26;100477.00;;;11.99;70.87
82931;BME280;72705;53.346;10.248;2024-03-02T10:37:55;100495.13;;;12.22;71.10
82931;BME280;72705;53.346;10.248;2024-03-02T10:40:26;100481.25;;;12.25;71.54
82931;BME280;72705;53.346;10.248;2024-03-02T10:42:53;100460.50;;;12.17;70.72
82931;BME280;72705;53.346;10.248;2024-03-02T10:45:21;100490.44;;;12.38;70.40
82931;BME280;72705;53.346;10.248;2024-03-02T10:47:53;100499.31;;;12.47;70.53
82931;BME280;72705;53.346;10.248;2024-03-02T10:50:21;100484.66;;;12.41;69.72
82931;BME280;72705;53.346;10.248;2024-03-02T10:52:47;100483.28;;;12.23;69.62
82931;BME280;72705;53.346;10.248;2024-03-02T10:55:16;100489.34;;;12.25;70.51
82931;BME280;72705;53.346;10.248;2024-03-02T10:58:06;100471.56;;;12.07;69.24
82931;BME280;72705;53.346;10.248;2024-03-02T11:00:35;100499.56;;;12.37;70.43
82931;BME280;72705;53.346;10.248;2024-03-02T11:03:07;100506.28;;;12.41;70.68
82931;BME280;72705;53.346;10.248;2024-03-02T11:05:40;100506.53;;;12.32;70.54
82931;BME280;72705;53.346;10.248;2024-03-02T11:08:08;100479.78;;;12.37;71.13
82931;BME280;72705;53.346;10.248;2024-03-02T11:10:41;100504.00;;;12.53;69.45
82931;BME280;72705;53.346;10.248;2024-03-02T11:13:12;100518.03;;;12.56;70.46
82931;BME280;72705;53.346;10.248;2024-03-02T11:15:40;100496.69;;;12.39;70.39
82931;BME280;72705;53.346;10.248;2024-03-02T11:18:06;100486.47;;;12.49;70.33
82931;BME280;72705;53.346;10.248;2024-03-02T11:20:36;100500.28;;;12.54;69.39
82931;BME280;72705;53.346;10.248;2024-03-02T11:23:07;100496.44;;;12.48;69.98
82931;BME280;72705;53.346;10.248;2024-03-02T11:25:35;100505.09;;;12.44;70.42
82931;BME280;72705;53.346;10.248;2024-03-02T11:28:06;100505.84;;;12.75;69.63
82931;BME280;72705;53.346;10.248;2024-03-02T11:33:10;100507.97;;;12.42;72.54
82931;BME280;72705;53.346;10.248;2024-03-02T11:35:43;100514.28;;;12.35;73.71
82931;BME280;72705;53.346;10.248;2024-03-02T11:38:12;100488.84;;;11.98;72.86
82931;BME280;72705;53.346;10.248;2024-03-02T11:40:39;100516.34;;;12.33;73.54
82931;BME280;72705;53.346;10.248;2024-03-02T11:43:06;100515.19;;;12.27;73.96
82931;BME280;72705;53.346;10.248;2024-03-02T11:45:35;100509.28;;;12.24;72.71
82931;BME280;72705;53.346;10.248;2024-03-02T11:48:08;100504.69;;;12.09;72.97
82931;BME280;72705;53.346;10.248;2024-03-02T11:50:40;100511.28;;;12.07;73.96
82931;BME280;72705;53.346;10.248;2024-03-02T11:53:09;100518.41;;;12.23;74.16
82931;BME280;72705;53.346;10.248;2024-03-02T11:55:37;100508.09;;;12.26;73.79
82931;BME280;72705;53.346;10.248;2024-03-02T11:58:09;100494.56;;;12.03;73.49
82931;BME280;72705;53.346;10.248;2024-03-02T12:00:36;100495.59;;;12.02;73.52
82931;BME280;72705;53.346;10.248;2024-03-02T12:03:07;100512.06;;;12.15;74.10
82931;BME280;72705;53.346;10.248;2024-03-02T12:05:34;100503.75;;;12.17;73.59
82931;BME280;72705;53.346;10.248;2024-03-02T12:08:02;100514.34;;;12.27;73.80
82931;BME280;72705;53.346;10.248;2024-03-02T12:10:29;100519.09;;;12.25;72.92
82931;BME280;72705;53.346;10.248;2024-03-02T12:13:01;100511.66;;;12.27;73.33
82931;BME280;72705;53.346;10.248;2024-03-02T12:15:34;100501.56;;;12.21;73.03
82931;BME280;72705;53.346;10.248;2024-03-02T12:18:08;100496.75;;;12.31;72.84
82931;BME280;72705;53.346;10.248;2024-03-02T12:20:35;100517.22;;;12.48;73.12
82931;BME280;72705;53.346;10.248;2024-03-02T12:23:07;100506.34;;;12.56;72.01
82931;BME280;72705;53.346;10.248;2024-03-02T12:25:33;100503.88;;;12.69;71.55
82931;BME280;72705;53.346;10.248;2024-03-02T12:28:00;100488.75;;;12.37;72.71
82931;BME280;72705;53.346;10.248;2024-03-02T12:30:30;100509.53;;;12.37;71.89
82931;BME280;72705;53.346;10.248;2024-03-02T12:32:55;100509.06;;;12.33;72.43
82931;BME280;72705;53.346;10.248;2024-03-02T12:35:21;100502.81;;;12.33;71.93
82931;BME280;72705;53.346;10.248;2024-03-02T12:37:48;100507.88;;;12.59;72.73
82931;BME280;72705;53.346;10.248;2024-03-02T12:40:16;100494.13;;;12.60;74.37
82931;BME280;72705;53.346;10.248;2024-03-02T12:42:46;100499.31;;;12.70;71.81
82931;BME280;72705;53.346;10.248;2024-03-02T12:45:15;100500.78;;;12.72;71.21